Time;durP1;ratioP1;P1;durP2;ratioP2;P2;SDS_P1;SDS_P2;PMS_P1;PMS_P2;Temp;Humidity;BMP_temperature;BMP_pressure;BME280_temperature;BME280_humidity;BME280_pressure;Samples;Min_cycle;Max_cycle;Signal;HPM_P1;HPM_P2
2023/04/10 02:02:32;;;;;;;244.60;21.95;;;;;;;;;;4283506;28;20499;-70
2023/04/10 02:04:59;;;;;;;287.10;21.55;;;;;;;;;;4253710;33;20099;-68
2023/04/10 02:07:25;;;;;;;229.70;20.50;;;;;;;;;;4251366;33;20076;-69
2023/04/10 02:09:57;;;;;;;;;;;;;;;;;;4262042;33;20986;-67
2023/04/10 02:12:31;;;;;;;175.40;19.62;;;;;;;;;;4272151;33;19948;-68
2023/04/10 02:15:00;;;;;;;235.05;22.50;;;;;;;;;;4271120;33;20079;-68
2023/04/10 02:17:28;;;;;;;240.77;22.92;;;;;;;;;;4261260;33;20058;-68
2023/04/10 02:19:55;;;;;;;264.38;21.60;;;;;;;;;;4254562;33;20062;-68
2023/04/10 02:22:22;;;;;;;204.90;20.98;;;;;;;;;;4254553;33;20352;-69
2023/04/10 02:24:48;;;;;;;217.82;32.10;;;;;;;;;;4253428;33;20440;-68
2023/04/10 02:27:15;;;;;;;177.35;25.45;;;;;;;;;;4255466;33;20050;-68
2023/04/10 02:29:41;;;;;;;160.27;23.62;;;;;;;;;;4249376;33;20063;-68
2023/04/10 02:32:07;;;;;;;168.43;19.98;;;;;;;;;;4228111;33;20048;-68
2023/04/10 02:34:33;;;;;;;107.93;19.27;;;;;;;;;;4223039;33;20464;-69
2023/04/10 02:36:59;;;;;;;167.45;21.45;;;;;;;;;;4208318;34;20086;-68
2023/04/10 02:39:28;;;;;;;166.55;20.10;;;;;;;;;;4207010;34;20600;-70
2023/04/10 02:41:55;;;;;;;126.35;19.73;;;;;;;;;;4209451;34;21016;-68
2023/04/10 02:44:21;;;;;;;142.60;21.55;;;;;;;;;;4208203;34;20046;-68
2023/04/10 02:46:47;;;;;;;195.32;22.67;;;;;;;;;;4194825;34;20054;-68
2023/04/10 02:49:14;;;;;;;106.93;19.73;;;;;;;;;;4201202;34;20834;-68
2023/04/10 02:51:40;;;;;;;148.82;25.15;;;;;;;;;;4206505;34;20087;-68
2023/04/10 02:54:06;;;;;;;143.57;22.40;;;;;;;;;;4208793;34;21078;-68
2023/04/10 02:56:33;;;;;;;119.47;20.65;;;;;;;;;;4209102;34;20063;-68
2023/04/10 02:59:00;;;;;;;93.62;20.65;;;;;;;;;;4207966;34;20075;-68
2023/04/10 03:01:26;;;;;;;78.40;22.35;;;;;;;;;;4196887;34;20066;-69
2023/04/10 03:03:54;;;;;;;118.22;20.37;;;;;;;;;;4207242;34;20430;-68
2023/04/10 03:06:25;;;;;;;158.98;24.33;;;;;;;;;;4195937;34;20063;-69
2023/04/10 03:08:51;;;;;;;144.13;21.25;;;;;;;;;;4231992;33;20072;-68
2023/04/10 03:11:17;;;;;;;96.72;18.85;;;;;;;;;;4235548;33;20381;-68
2023/04/10 03:13:44;;;;;;;151.98;19.35;;;;;;;;;;4255899;33;20460;-70
2023/04/10 03:16:10;;;;;;;106.03;20.73;;;;;;;;;;4264501;33;20488;-68
2023/04/10 03:18:37;;;;;;;185.90;25.17;;;;;;;;;;4254892;33;20860;-68
2023/04/10 03:21:03;;;;;;;92.22;19.40;;;;;;;;;;4249839;33;20191;-69
2023/04/10 03:23:29;;;;;;;91.75;21.33;;;;;;;;;;4250570;33;20042;-68
2023/04/10 03:25:56;;;;;;;177.82;23.20;;;;;;;;;;4248901;33;20058;-69
2023/04/10 03:28:23;;;;;;;155.18;18.42;;;;;;;;;;4251012;33;20055;-68
2023/04/10 03:30:49;;;;;;;102.30;17.87;;;;;;;;;;4207259;34;20031;-68
2023/04/10 03:33:15;;;;;;;133.27;21.37;;;;;;;;;;4208768;34;20051;-68
2023/04/10 03:35:41;;;;;;;58.87;17.35;;;;;;;;;;4206894;34;20448;-69
2023/04/10 03:38:08;;;;;;;143.13;21.10;;;;;;;;;;4207411;34;20233;-68
2023/04/10 03:40:34;;;;;;;129.70;18.58;;;;;;;;;;4207910;34;20044;-69
2023/04/10 03:43:01;;;;;;;144.90;19.62;;;;;;;;;;4197171;34;20051;-68
2023/04/10 03:45:33;;;;;;;128.27;17.23;;;;;;;;;;4186616;34;20048;-68
2023/04/10 03:48:00;;;;;;;115.85;17.70;;;;;;;;;;4178438;34;20083;-69
2023/04/10 03:50:27;;;;;;;98.87;17.98;;;;;;;;;;4180341;34;20055;-68
2023/04/10 03:52:54;;;;;;;79.87;16.98;;;;;;;;;;4180861;34;20039;-68
2023/04/10 03:55:20;;;;;;;128.05;17.10;;;;;;;;;;4182351;34;20081;-68
2023/04/10 03:57:48;;;;;;;179.20;18.27;;;;;;;;;;4192674;34;20065;-68
2023/04/10 04:00:15;;;;;;;129.18;17.67;;;;;;;;;;4181944;34;20083;-68
2023/04/10 04:02:46;;;;;;;149.45;15.70;;;;;;;;;;4216853;34;20047;-68
2023/04/10 04:05:15;;;;;;;134.20;16.00;;;;;;;;;;4221699;33;20080;-68
2023/04/10 04:07:42;;;;;;;165.60;18.00;;;;;;;;;;4219301;33;20518;-68
2023/04/10 04:10:09;;;;;;;144.57;17.52;;;;;;;;;;4208435;34;20047;-68
2023/04/10 04:12:36;;;;;;;131.77;15.75;;;;;;;;;;4212644;34;20046;-68
2023/04/10 04:15:02;;;;;;;137.75;16.60;;;;;;;;;;4207750;34;20113;-68
2023/04/10 04:17:30;;;;;;;90.20;14.80;;;;;;;;;;4208064;34;20104;-68
2023/04/10 04:19:56;;;;;;;205.35;16.48;;;;;;;;;;4206133;34;20089;-69
2023/04/10 04:22:23;;;;;;;148.23;17.87;;;;;;;;;;4208104;34;20054;-70
2023/04/10 04:24:52;;;;;;;159.07;17.87;;;;;;;;;;4207639;34;20448;-70
2023/04/10 04:27:20;;;;;;;276.05;24.65;;;;;;;;;;4206710;34;20050;-69
2023/04/10 04:29:47;;;;;;;105.47;16.73;;;;;;;;;;4219966;34;20574;-69
2023/04/10 04:32:14;;;;;;;65.95;16.33;;;;;;;;;;4221055;34;20274;-69
2023/04/10 04:34:40;;;;;;;140.40;17.42;;;;;;;;;;4222981;33;20078;-69
2023/04/10 04:37:07;;;;;;;115.95;15.20;;;;;;;;;;4208262;34;20065;-69
2023/04/10 04:39:33;;;;;;;124.93;15.00;;;;;;;;;;4206586;34;20039;-69
2023/04/10 04:42:00;;;;;;;103.15;15.02;;;;;;;;;;4204485;34;20121;-70
2023/04/10 04:44:27;;;;;;;148.70;21.23;;;;;;;;;;4206682;34;20069;-69
2023/04/10 04:46:56;;;;;;;127.82;17.77;;;;;;;;;;4230552;33;20068;-69
2023/04/10 04:49:23;;;;;;;116.10;16.20;;;;;;;;;;4235404;33;20073;-69
2023/04/10 04:51:50;;;;;;;49.42;12.57;;;;;;;;;;4247743;33;20084;-70
2023/04/10 04:54:19;;;;;;;86.30;16.85;;;;;;;;;;4249020;33;20383;-69
2023/04/10 04:56:46;;;;;;;102.87;16.75;;;;;;;;;;4249040;33;20046;-69
2023/04/10 04:59:13;;;;;;;80.65;16.77;;;;;;;;;;4248186;33;20058;-69
2023/04/10 05:01:39;;;;;;;50.67;14.25;;;;;;;;;;4247950;33;20117;-69
2023/04/10 05:04:06;;;;;;;71.68;14.30;;;;;;;;;;4248062;33;20051;-71
2023/04/10 05:06:33;;;;;;;56.58;15.13;;;;;;;;;;4233985;33;20354;-69
2023/04/10 05:08:59;;;;;;;42.47;14.25;;;;;;;;;;4234617;33;20042;-70
2023/04/10 05:11:27;;;;;;;62.75;16.50;;;;;;;;;;4235293;33;20134;-70
2023/04/10 05:13:53;;;;;;;59.30;15.02;;;;;;;;;;4233470;33;20039;-69
2023/04/10 05:16:20;;;;;;;60.80;15.93;;;;;;;;;;4191128;34;20064;-70
2023/04/10 05:18:48;;;;;;;38.75;15.20;;;;;;;;;;4187866;34;20044;-70
2023/04/10 05:21:14;;;;;;;59.45;14.27;;;;;;;;;;4182017;34;20064;-70
2023/04/10 05:23:40;;;;;;;60.67;15.43;;;;;;;;;;4182866;34;20059;-70
2023/04/10 05:26:07;;;;;;;68.35;13.73;;;;;;;;;;4180453;34;20056;-70
2023/04/10 05:28:35;;;;;;;118.68;18.92;;;;;;;;;;4181230;34;20317;-68
2023/04/10 05:31:04;;;;;;;55.30;14.50;;;;;;;;;;4182303;34;20085;-68
2023/04/10 05:33:32;;;;;;;213.73;17.52;;;;;;;;;;4167778;34;20375;-68
2023/04/10 05:36:01;;;;;;;160.43;17.52;;;;;;;;;;4181372;34;20082;-69
2023/04/10 05:38:27;;;;;;;135.05;17.45;;;;;;;;;;4181300;34;20043;-70
2023/04/10 05:40:54;;;;;;;149.05;16.98;;;;;;;;;;4170418;34;20068;-69
2023/04/10 05:43:22;;;;;;;123.45;15.95;;;;;;;;;;4170225;34;20069;-69
2023/04/10 05:45:50;;;;;;;178.10;18.90;;;;;;;;;;4169255;34;20152;-69
2023/04/10 05:48:17;;;;;;;160.02;15.55;;;;;;;;;;4177125;34;20048;-70
2023/04/10 05:50:45;;;;;;;162.32;16.58;;;;;;;;;;4182269;34;20055;-69
2023/04/10 05:53:12;;;;;;;187.65;18.27;;;;;;;;;;4188806;34;20047;-69
2023/04/10 05:55:39;;;;;;;92.03;14.93;;;;;;;;;;4195066;34;20401;-69
2023/04/10 05:58:13;;;;;;;77.05;15.50;;;;;;;;;;4207174;34;20032;-69
2023/04/10 06:00:44;;;;;;;139.53;16.80;;;;;;;;;;4208920;34;20058;-69
2023/04/10 06:03:15;;;;;;;119.95;15.10;;;;;;;;;;4202884;34;20066;-68
2023/04/10 06:05:44;;;;;;;71.53;17.35;;;;;;;;;;4193412;34;20043;-69
2023/04/10 06:08:10;;;;;;;77.53;15.30;;;;;;;;;;4194471;34;20112;-69
2023/04/10 06:10:37;;;;;;;31.12;15.50;;;;;;;;;;4213198;34;20080;-68
2023/04/10 06:13:03;;;;;;;102.30;20.83;;;;;;;;;;4237485;33;20039;-69
2023/04/10 06:15:29;;;;;;;31.12;14.43;;;;;;;;;;4240371;33;20077;-69
2023/04/10 06:17:56;;;;;;;138.02;18.95;;;;;;;;;;4235829;33;20481;-69
2023/04/10 06:20:22;;;;;;;83.95;15.85;;;;;;;;;;4234113;33;20051;-69
2023/04/10 06:22:49;;;;;;;46.63;16.35;;;;;;;;;;4237418;33;20076;-69
2023/04/10 06:25:16;;;;;;;35.83;17.05;;;;;;;;;;4236107;33;20064;-69
2023/04/10 06:27:42;;;;;;;41.78;16.00;;;;;;;;;;4237275;33;20088;-69
2023/04/10 06:30:09;;;;;;;34.83;17.85;;;;;;;;;;4234366;33;20102;-70
2023/04/10 06:32:35;;;;;;;51.22;15.80;;;;;;;;;;4221905;34;20842;-69
2023/04/10 06:35:02;;;;;;;47.88;16.60;;;;;;;;;;4222303;34;20060;-68
2023/04/10 06:37:30;;;;;;;33.35;15.45;;;;;;;;;;4223225;34;20051;-69
2023/04/10 06:40:02;;;;;;;42.97;16.73;;;;;;;;;;4223290;33;20088;-69
2023/04/10 06:42:28;;;;;;;66.00;17.30;;;;;;;;;;4222501;33;20381;-69
2023/04/10 06:44:55;;;;;;;73.95;17.62;;;;;;;;;;4237167;33;20134;-69
2023/04/10 06:47:21;;;;;;;48.22;17.40;;;;;;;;;;4237186;33;20500;-69
2023/04/10 06:49:47;;;;;;;93.12;19.17;;;;;;;;;;4236483;33;20047;-69
2023/04/10 06:52:13;;;;;;;85.15;17.45;;;;;;;;;;4233166;33;20170;-70
2023/04/10 06:54:40;;;;;;;78.15;19.73;;;;;;;;;;4236316;33;20830;-69
2023/04/10 06:57:06;;;;;;;55.28;18.73;;;;;;;;;;4238970;33;20057;-69
2023/04/10 06:59:34;;;;;;;27.75;15.48;;;;;;;;;;4239442;33;20113;-69
2023/04/10 07:02:01;;;;;;;25.40;15.65;;;;;;;;;;4238311;33;20082;-69
2023/04/10 07:04:28;;;;;;;31.58;17.23;;;;;;;;;;4249687;33;20387;-70
2023/04/10 07:06:54;;;;;;;40.42;18.17;;;;;;;;;;4252880;33;20196;-69
2023/04/10 07:09:20;;;;;;;34.15;17.87;;;;;;;;;;4252983;33;20202;-69
2023/04/10 07:11:47;;;;;;;40.55;16.52;;;;;;;;;;4251372;33;20388;-70
2023/04/10 07:14:13;;;;;;;36.95;18.08;;;;;;;;;;4251957;33;20050;-70
2023/04/10 07:16:39;;;;;;;29.65;16.42;;;;;;;;;;4248964;33;20085;-70
2023/04/10 07:19:05;;;;;;;29.17;15.55;;;;;;;;;;4247161;33;20062;-69
2023/04/10 07:21:31;;;;;;;29.45;15.15;;;;;;;;;;4249731;33;20050;-69
2023/04/10 07:23:58;;;;;;;32.78;17.48;;;;;;;;;;4250962;33;20652;-69
2023/04/10 07:26:24;;;;;;;35.10;17.25;;;;;;;;;;4250184;33;20058;-69
2023/04/10 07:28:51;;;;;;;28.83;17.27;;;;;;;;;;4239954;33;20064;-70
2023/04/10 07:31:17;;;;;;;35.50;19.05;;;;;;;;;;4245966;33;20054;-70
2023/04/10 07:33:46;;;;;;;31.67;17.65;;;;;;;;;;4250369;33;20234;-69
2023/04/10 07:36:12;;;;;;;37.20;18.70;;;;;;;;;;4249457;33;20444;-69
2023/04/10 07:38:40;;;;;;;34.70;18.30;;;;;;;;;;4249058;33;20112;-69
2023/04/10 07:41:06;;;;;;;37.33;18.95;;;;;;;;;;4240022;33;20047;-69
2023/04/10 07:43:32;;;;;;;42.05;21.17;;;;;;;;;;4236640;33;20085;-69
2023/04/10 07:45:59;;;;;;;39.33;18.90;;;;;;;;;;4244527;33;20058;-70
2023/04/10 07:48:25;;;;;;;29.92;16.37;;;;;;;;;;4248219;33;20051;-69
2023/04/10 07:50:51;;;;;;;33.78;16.67;;;;;;;;;;4245500;33;20102;-71
2023/04/10 07:53:18;;;;;;;32.38;16.30;;;;;;;;;;4233745;33;20050;-68
2023/04/10 07:55:44;;;;;;;27.55;16.25;;;;;;;;;;4226221;33;20122;-68
2023/04/10 07:58:11;;;;;;;31.30;16.42;;;;;;;;;;4221422;33;20131;-68
2023/04/10 08:00:37;;;;;;;30.20;16.80;;;;;;;;;;4221248;33;20038;-69
2023/04/10 08:03:10;;;;;;;32.85;17.37;;;;;;;;;;4220676;33;20119;-68
2023/04/10 08:05:36;;;;;;;31.70;17.12;;;;;;;;;;4233040;33;20030;-68
2023/04/10 08:08:02;;;;;;;32.30;17.48;;;;;;;;;;4223940;33;20069;-68
2023/04/10 08:10:29;;;;;;;31.70;18.45;;;;;;;;;;4238991;33;20493;-68
2023/04/10 08:12:55;;;;;;;38.10;18.55;;;;;;;;;;4233950;33;20072;-69
2023/04/10 08:15:21;;;;;;;35.70;18.17;;;;;;;;;;4235169;33;20058;-71
2023/04/10 08:17:47;;;;;;;36.13;18.15;;;;;;;;;;4231289;33;20054;-68
2023/04/10 08:20:13;;;;;;;32.80;18.40;;;;;;;;;;4225523;33;20094;-68
2023/04/10 08:22:40;;;;;;;34.67;19.17;;;;;;;;;;4224656;33;20537;-68
2023/04/10 08:25:06;;;;;;;41.40;21.80;;;;;;;;;;4227024;33;20079;-68
2023/04/10 08:27:32;;;;;;;36.25;19.05;;;;;;;;;;4237494;33;20068;-73
2023/04/10 08:29:58;;;;;;;39.50;18.15;;;;;;;;;;4228932;33;20455;-68
2023/04/10 08:32:25;;;;;;;33.97;17.87;;;;;;;;;;4209105;33;20067;-68
2023/04/10 08:34:51;;;;;;;26.90;14.60;;;;;;;;;;4220650;33;20043;-68
2023/04/10 08:37:18;;;;;;;34.80;15.98;;;;;;;;;;4218252;33;20055;-67
2023/04/10 08:39:44;;;;;;;28.60;17.65;;;;;;;;;;4219168;33;20102;-68
2023/04/10 08:42:11;;;;;;;24.55;15.15;;;;;;;;;;4220563;34;20062;-68
2023/04/10 08:44:37;;;;;;;28.17;15.35;;;;;;;;;;4217627;33;20101;-68
2023/04/10 08:47:04;;;;;;;26.60;13.82;;;;;;;;;;4218729;34;20068;-67
2023/04/10 08:49:39;;;;;;;28.33;14.13;;;;;;;;;;4241137;33;20091;-72
2023/04/10 08:52:06;;;;;;;23.73;13.77;;;;;;;;;;4244972;33;20454;-67
2023/04/10 08:54:36;;;;;;;19.70;11.38;;;;;;;;;;4246252;33;20471;-68
2023/04/10 08:57:05;;;;;;;20.80;11.63;;;;;;;;;;4247282;33;20388;-67
2023/04/10 08:59:31;;;;;;;21.85;11.55;;;;;;;;;;4248174;33;20050;-67
2023/04/10 09:01:58;;;;;;;15.25;9.30;;;;;;;;;;4220784;33;20050;-67
2023/04/10 09:04:24;;;;;;;17.73;9.85;;;;;;;;;;4221297;34;20133;-67
2023/04/10 09:06:53;;;;;;;17.98;9.15;;;;;;;;;;4220771;33;20072;-68
2023/04/10 09:09:19;;;;;;;15.27;8.43;;;;;;;;;;4220089;33;20116;-69
2023/04/10 09:11:51;;;;;;;14.25;7.62;;;;;;;;;;4220011;33;20046;-67
2023/04/10 09:14:20;;;;;;;17.02;7.97;;;;;;;;;;4221515;33;20072;-67
2023/04/10 09:16:47;;;;;;;23.92;8.40;;;;;;;;;;4222256;33;20393;-66
2023/04/10 09:19:27;;;;;;;16.17;7.15;;;;;;;;;;4220529;34;20042;-72
2023/04/10 09:21:54;;;;;;;13.82;7.47;;;;;;;;;;4220199;34;20047;-68
2023/04/10 09:24:20;;;;;;;20.65;7.30;;;;;;;;;;4221954;33;20462;-68
2023/04/10 09:26:46;;;;;;;15.93;6.68;;;;;;;;;;4221584;34;20078;-69
2023/04/10 09:29:12;;;;;;;;;;;;;;;;;;4220034;33;20038;-69
2023/04/10 09:31:38;;;;;;;;;;;;;;;;;;4222387;34;20216;-67
2023/04/10 09:34:04;;;;;;;;;;;;;;;;;;4236949;33;19945;-68
2023/04/10 09:36:31;;;;;;;;;;;;;;;;;;4238788;33;19953;-67
2023/04/10 09:38:56;;;;;;;;;;;;;;;;;;4237102;33;19946;-67
2023/04/10 09:41:22;;;;;;;;;;;;;;;;;;4236563;33;19954;-70
2023/04/10 09:43:48;;;;;;;;;;;;;;;;;;4238132;33;19981;-67
2023/04/10 09:46:14;;;;;;;;;;;;;;;;;;4250837;33;19953;-67
2023/04/10 09:48:40;;;;;;;;;;;;;;;;;;4252192;33;19956;-67
2023/04/10 09:51:06;;;;;;;;;;;;;;;;;;4252003;33;20386;-68
2023/04/10 09:53:32;;;;;;;;;;;;;;;;;;4250966;33;19953;-68
2023/04/10 09:55:58;;;;;;;;;;;;;;;;;;4251298;33;19959;-68
2023/04/10 09:58:25;;;;;;;;;;;;;;;;;;4251961;33;19957;-67
2023/04/10 10:00:51;;;;;;;;;;;;;;;;;;4249744;33;19959;-68
2023/04/10 10:03:17;;;;;;;;;;;;;;;;;;4250391;33;20379;-67
2023/04/10 10:05:44;;;;;;;;;;;;;;;;;;4265953;33;20347;-72
2023/04/10 10:08:10;;;;;;;;;;;;;;;;;;4266339;33;19985;-68
2023/04/10 10:10:36;;;;;;;;;;;;;;;;;;4265741;33;20069;-67
2023/04/10 10:13:02;;;;;;;;;;;;;;;;;;4252610;33;20001;-68
2023/04/10 10:15:28;;;;;;;;;;;;;;;;;;4252281;33;19949;-67
2023/04/10 10:17:54;;;;;;;;;;;;;;;;;;4249070;33;19956;-67
2023/04/10 10:20:20;;;;;;;;;;;;;;;;;;4252457;33;19957;-68
2023/04/10 10:22:46;;;;;;;;;;;;;;;;;;4265923;33;19984;-69
2023/04/10 10:25:12;;;;;;;;;;;;;;;;;;4251637;33;20007;-68
2023/04/10 10:27:38;;;;;;;;;;;;;;;;;;4251159;33;19993;-69
2023/04/10 10:30:04;;;;;;;;;;;;;;;;;;4252265;33;19945;-66
2023/04/10 10:32:36;;;;;;;;;;;;;;;;;;4252507;33;20072;-65
2023/04/10 10:35:02;;;;;;;;;;;;;;;;;;4252302;33;19972;-67
2023/04/10 10:37:28;;;;;;;;;;;;;;;;;;4239923;33;20005;-71
2023/04/10 10:39:54;;;;;;;;;;;;;;;;;;4237100;33;19949;-67
2023/04/10 10:42:20;;;;;;;;;;;;;;;;;;4237183;33;20351;-67
2023/04/10 10:44:46;;;;;;;;;;;;;;;;;;4214211;33;19939;-68
2023/04/10 10:47:12;;;;;;;;;;;;;;;;;;4207210;34;19950;-67
2023/04/10 10:49:47;;;;;;;;;;;;;;;;;;4206385;34;20352;-70
2023/04/10 10:52:13;;;;;;;;;;;;;;;;;;4209481;34;20372;-68
2023/04/10 10:54:39;;;;;;;;;;;;;;;;;;4221680;34;19994;-68
2023/04/10 10:57:08;;;;;;;;;;;;;;;;;;4248458;33;19941;-68
2023/04/10 10:59:41;;;;;;;;;;;;;;;;;;4250964;33;20282;-72
2023/04/10 11:02:07;;;;;;;;;;;;;;;;;;4406281;28;19952;-66
2023/04/10 11:04:33;;;;;;;;;;;;;;;;;;4265146;33;19949;-68
2023/04/10 11:06:59;;;;;;;;;;;;;;;;;;4267793;33;19958;-68
2023/04/10 11:09:28;;;;;;;;;;;;;;;;;;4267643;33;19987;-70
2023/04/10 11:11:54;;;;;;;;;;;;;;;;;;4264169;33;20466;-67
2023/04/10 11:14:20;;;;;;;;;;;;;;;;;;4265202;33;20414;-71
2023/04/10 11:16:46;;;;;;;;;;;;;;;;;;4263925;33;19952;-67
2023/04/10 11:19:12;;;;;;;;;;;;;;;;;;4262775;33;20172;-67
2023/04/10 11:21:38;;;;;;;;;;;;;;;;;;4263651;33;20329;-67
2023/04/10 11:24:04;;;;;;;;;;;;;;;;;;4264601;33;19953;-67
2023/04/10 11:26:32;;;;;;;7.84;4.80;;;;;;;;;;4262111;33;19937;-68
2023/04/10 11:28:59;;;;;;;5.40;4.00;;;;;;;;;;4263095;33;20068;-66
2023/04/10 11:31:26;;;;;;;4.80;4.00;;;;;;;;;;4264170;33;20120;-67
2023/04/10 11:33:52;;;;;;;4.77;3.67;;;;;;;;;;4263576;33;31146;-67
2023/04/10 11:36:18;;;;;;;;;;;;;;;;;;4265134;33;20084;-67
2023/04/10 11:38:44;;;;;;;;;;;;;;;;;;4261402;33;20120;-71
2023/04/10 11:41:10;;;;;;;3.60;3.30;;;;;;;;;;4263924;33;20271;-68
2023/04/10 11:43:36;;;;;;;6.35;2.90;;;;;;;;;;4263992;33;20541;-67
2023/04/10 11:46:02;;;;;;;;;;;;;;;;;;4263398;33;20088;-70
2023/04/10 11:48:29;;;;;;;5.80;2.87;;;;;;;;;;4269437;33;20079;-69
2023/04/10 11:50:56;;;;;;;4.72;3.20;;;;;;;;;;4262610;33;20045;-68
2023/04/10 11:53:23;;;;;;;5.32;3.62;;;;;;;;;;4263274;33;20817;-69
2023/04/10 11:55:49;;;;;;;7.40;3.10;;;;;;;;;;4258495;33;20060;-69
2023/04/10 11:58:23;;;;;;;6.60;3.08;;;;;;;;;;4238173;33;20075;-68
2023/04/10 12:00:59;;;;;;;3.65;2.47;;;;;;;;;;4244184;33;20096;-69
2023/04/10 12:03:33;;;;;;;3.55;3.05;;;;;;;;;;4246669;33;20050;-68
2023/04/10 12:05:59;;;;;;;6.50;2.92;;;;;;;;;;4231587;33;20092;-69
2023/04/10 12:08:30;;;;;;;6.00;4.07;;;;;;;;;;4247154;33;20054;-71
2023/04/10 12:10:59;;;;;;;11.73;3.95;;;;;;;;;;4248276;33;20509;-70
2023/04/10 12:13:28;;;;;;;6.57;3.00;;;;;;;;;;4244692;33;20072;-70
2023/04/10 12:16:00;;;;;;;6.78;3.33;;;;;;;;;;4240259;33;20023;-70
2023/04/10 12:18:29;;;;;;;3.75;2.97;;;;;;;;;;4242270;33;20258;-70
2023/04/10 12:20:57;;;;;;;3.92;3.05;;;;;;;;;;4245393;33;20076;-69
2023/04/10 12:23:26;;;;;;;6.15;3.00;;;;;;;;;;4234804;33;20076;-69
2023/04/10 12:26:05;;;;;;;3.30;2.40;;;;;;;;;;4242604;33;20073;-69
2023/04/10 12:28:33;;;;;;;7.60;4.20;;;;;;;;;;4248706;33;20112;-70
2023/04/10 12:31:02;;;;;;;5.78;2.83;;;;;;;;;;4248597;33;20094;-71
2023/04/10 12:33:30;;;;;;;3.87;3.20;;;;;;;;;;4250262;33;20097;-70
2023/04/10 12:35:59;;;;;;;9.25;3.47;;;;;;;;;;4240203;33;20068;-70
2023/04/10 12:38:40;;;;;;;6.03;3.50;;;;;;;;;;4239877;33;20050;-72
2023/04/10 12:41:08;;;;;;;6.65;3.65;;;;;;;;;;4236249;33;20043;-71
2023/04/10 12:43:58;;;;;;;6.45;3.50;;;;;;;;;;4222157;33;20058;-70
2023/04/10 12:46:27;;;;;;;8.32;4.75;;;;;;;;;;4224278;33;20970;-70
2023/04/10 12:48:54;;;;;;;5.15;2.70;;;;;;;;;;4226540;33;20038;-69
2023/04/10 12:51:40;;;;;;;7.15;3.80;;;;;;;;;;4222863;33;20445;-69
2023/04/10 12:54:09;;;;;;;4.80;3.83;;;;;;;;;;4198922;33;20845;-69
2023/04/10 12:56:46;;;;;;;7.28;3.47;;;;;;;;;;4194966;34;20058;-68
2023/04/10 12:59:14;;;;;;;4.03;3.37;;;;;;;;;;4197112;34;20094;-69
2023/04/10 13:01:44;;;;;;;7.68;3.20;;;;;;;;;;4197183;34;20043;-70
2023/04/10 13:04:12;;;;;;;7.40;3.78;;;;;;;;;;4200715;34;20043;-70
2023/04/10 13:06:41;;;;;;;5.65;3.28;;;;;;;;;;4212281;33;20478;-70
2023/04/10 13:09:07;;;;;;;7.00;3.67;;;;;;;;;;4236231;33;20054;-72
2023/04/10 13:11:33;;;;;;;5.47;3.58;;;;;;;;;;4231761;33;20062;-71
2023/04/10 13:14:00;;;;;;;4.45;3.22;;;;;;;;;;4236129;33;20054;-69
2023/04/10 13:16:26;;;;;;;6.78;2.87;;;;;;;;;;4237987;33;20116;-70
2023/04/10 13:18:52;;;;;;;4.25;3.30;;;;;;;;;;4263486;33;20412;-69
2023/04/10 13:21:21;;;;;;;3.97;3.55;;;;;;;;;;4264914;33;20067;-67
2023/04/10 13:23:48;;;;;;;3.35;2.92;;;;;;;;;;4261593;33;20146;-71
2023/04/10 13:26:14;;;;;;;3.22;2.92;;;;;;;;;;4261396;33;20064;-69
2023/04/10 13:28:40;;;;;;;3.95;3.55;;;;;;;;;;4248905;33;20068;-69
2023/04/10 13:31:07;;;;;;;5.97;3.17;;;;;;;;;;4248749;33;20046;-68
2023/04/10 13:33:33;;;;;;;4.60;3.10;;;;;;;;;;4239417;33;20471;-69
2023/04/10 13:35:59;;;;;;;3.08;2.78;;;;;;;;;;4245176;33;20368;-71
2023/04/10 13:38:26;;;;;;;4.87;2.67;;;;;;;;;;4238732;33;20080;-68
2023/04/10 13:40:52;;;;;;;5.22;3.50;;;;;;;;;;4237827;33;20050;-70
2023/04/10 13:43:19;;;;;;;9.05;3.60;;;;;;;;;;4241077;33;20050;-69
2023/04/10 13:45:45;;;;;;;4.40;2.78;;;;;;;;;;4237493;33;20126;-68
2023/04/10 13:48:11;;;;;;;3.95;3.10;;;;;;;;;;4234713;33;20175;-71
2023/04/10 13:50:38;;;;;;;5.43;2.92;;;;;;;;;;4236753;33;20320;-68
2023/04/10 13:53:06;;;;;;;4.50;3.35;;;;;;;;;;4239043;33;20054;-68
2023/04/10 13:55:32;;;;;;;2.50;2.30;;;;;;;;;;4239394;33;20042;-69
2023/04/10 13:57:58;;;;;;;4.60;2.90;;;;;;;;;;4225407;33;20050;-70
2023/04/10 14:00:25;;;;;;;5.20;2.67;;;;;;;;;;4248144;33;20026;-69
2023/04/10 14:02:51;;;;;;;5.18;2.78;;;;;;;;;;4251382;33;20056;-69
2023/04/10 14:05:17;;;;;;;5.87;3.40;;;;;;;;;;4250783;33;20034;-69
2023/04/10 14:07:43;;;;;;;5.12;2.67;;;;;;;;;;4236330;33;20188;-68
2023/04/10 14:10:10;;;;;;;3.40;2.75;;;;;;;;;;4222457;33;20054;-69
2023/04/10 14:12:36;;;;;;;6.97;2.70;;;;;;;;;;4222299;33;20047;-68
2023/04/10 14:15:02;;;;;;;3.15;2.67;;;;;;;;;;4222705;33;20063;-69
2023/04/10 14:17:29;;;;;;;5.35;3.00;;;;;;;;;;4222103;33;20433;-68
2023/04/10 14:19:54;;;;;;;3.25;2.22;;;;;;;;;;4221076;33;20145;-69
2023/04/10 14:22:21;;;;;;;4.65;3.10;;;;;;;;;;4220840;33;20396;-69
2023/04/10 14:24:47;;;;;;;4.22;2.80;;;;;;;;;;4223856;33;20088;-69
2023/04/10 14:27:13;;;;;;;3.92;2.83;;;;;;;;;;4222139;33;20056;-69
2023/04/10 14:29:39;;;;;;;3.25;2.90;;;;;;;;;;4222158;33;20094;-69
2023/04/10 14:32:06;;;;;;;7.65;3.75;;;;;;;;;;4221958;33;20213;-72
2023/04/10 14:34:32;;;;;;;6.05;3.05;;;;;;;;;;4235468;33;20050;-70
2023/04/10 14:36:58;;;;;;;5.57;3.00;;;;;;;;;;4236609;33;20228;-68
2023/04/10 14:39:24;;;;;;;8.02;3.65;;;;;;;;;;4246927;33;20495;-69
2023/04/10 14:41:51;;;;;;;3.90;3.53;;;;;;;;;;4237836;33;20072;-70
2023/04/10 14:44:17;;;;;;;4.40;2.87;;;;;;;;;;4234391;33;20177;-69
2023/04/10 14:46:44;;;;;;;6.40;3.25;;;;;;;;;;4226681;33;20433;-69
2023/04/10 14:49:11;;;;;;;4.37;3.10;;;;;;;;;;4235260;33;20223;-69
2023/04/10 14:51:37;;;;;;;5.07;3.53;;;;;;;;;;4237044;33;20078;-69
2023/04/10 14:54:04;;;;;;;4.47;3.20;;;;;;;;;;4235900;33;20071;-70
2023/04/10 14:56:30;;;;;;;3.58;2.72;;;;;;;;;;4235612;33;20042;-71
2023/04/10 14:58:56;;;;;;;4.35;3.50;;;;;;;;;;4239564;33;20078;-69
2023/04/10 15:01:23;;;;;;;5.60;3.12;;;;;;;;;;4234873;33;20074;-69
2023/04/10 15:03:49;;;;;;;11.00;3.30;;;;;;;;;;4237788;33;20046;-69
2023/04/10 15:06:15;;;;;;;3.40;3.05;;;;;;;;;;4242856;33;20071;-68
2023/04/10 15:08:41;;;;;;;7.28;3.28;;;;;;;;;;4246766;33;20405;-71
2023/04/10 15:11:08;;;;;;;4.90;3.35;;;;;;;;;;4233969;33;20077;-68
2023/04/10 15:13:34;;;;;;;7.97;2.85;;;;;;;;;;4235775;33;20046;-69
2023/04/10 15:16:01;;;;;;;3.87;3.03;;;;;;;;;;4249507;33;20060;-69
2023/04/10 15:18:27;;;;;;;3.53;3.22;;;;;;;;;;4249682;33;20089;-68
2023/04/10 15:20:57;;;;;;;4.25;3.15;;;;;;;;;;4249071;33;20087;-70
2023/04/10 15:23:24;;;;;;;3.42;2.92;;;;;;;;;;4249427;33;20045;-70
2023/04/10 15:25:50;;;;;;;8.25;4.40;;;;;;;;;;4248456;33;20045;-69
2023/04/10 15:28:16;;;;;;;4.95;3.62;;;;;;;;;;4249948;33;20038;-69
2023/04/10 15:30:43;;;;;;;7.15;4.20;;;;;;;;;;4249525;33;20092;-68
2023/04/10 15:33:09;;;;;;;5.25;2.95;;;;;;;;;;4247879;33;20486;-69
2023/04/10 15:35:36;;;;;;;4.60;2.70;;;;;;;;;;4262631;33;20081;-69
2023/04/10 15:38:03;;;;;;;3.25;2.75;;;;;;;;;;4264900;33;20042;-69
2023/04/10 15:40:29;;;;;;;3.47;2.78;;;;;;;;;;4263260;33;20075;-69
2023/04/10 15:42:55;;;;;;;4.70;3.03;;;;;;;;;;4248771;33;20041;-70
2023/04/10 15:45:22;;;;;;;5.55;2.65;;;;;;;;;;4247067;33;20439;-71
2023/04/10 15:47:48;;;;;;;5.37;2.78;;;;;;;;;;4238513;33;20112;-70
2023/04/10 15:50:14;;;;;;;2.75;2.55;;;;;;;;;;4235023;33;20388;-69
2023/04/10 15:52:40;;;;;;;2.83;2.15;;;;;;;;;;4235747;33;20046;-68
2023/04/10 15:55:06;;;;;;;4.72;3.15;;;;;;;;;;4234374;33;20354;-68
2023/04/10 15:57:32;;;;;;;7.12;2.75;;;;;;;;;;4231190;33;20064;-69
2023/04/10 16:00:00;;;;;;;5.45;2.87;;;;;;;;;;4235466;33;20216;-68
2023/04/10 16:02:26;;;;;;;3.25;3.00;;;;;;;;;;4234585;33;20050;-68
2023/04/10 16:04:53;;;;;;;2.70;2.28;;;;;;;;;;4234492;33;20426;-69
2023/04/10 16:07:19;;;;;;;5.05;3.00;;;;;;;;;;4235046;33;20654;-68
2023/04/10 16:09:46;;;;;;;3.53;2.37;;;;;;;;;;4232644;33;20054;-68
2023/04/10 16:12:12;;;;;;;6.53;2.45;;;;;;;;;;4231373;33;20439;-69
2023/04/10 16:14:39;;;;;;;3.33;2.65;;;;;;;;;;4258128;33;20206;-70
2023/04/10 16:17:05;;;;;;;2.90;2.62;;;;;;;;;;4261315;33;20034;-69
2023/04/10 16:19:31;;;;;;;4.55;2.40;;;;;;;;;;4260230;33;20561;-73
2023/04/10 16:21:57;;;;;;;3.45;2.65;;;;;;;;;;4257413;33;20112;-69
2023/04/10 16:24:23;;;;;;;4.05;3.10;;;;;;;;;;4257037;33;20049;-68
2023/04/10 16:26:50;;;;;;;4.32;3.17;;;;;;;;;;4257086;33;20084;-69
2023/04/10 16:29:18;;;;;;;2.78;2.58;;;;;;;;;;4256574;33;20080;-69
2023/04/10 16:31:44;;;;;;;3.08;2.87;;;;;;;;;;4252908;33;20123;-69
2023/04/10 16:34:11;;;;;;;4.87;3.00;;;;;;;;;;4257632;33;20061;-69
2023/04/10 16:36:37;;;;;;;5.07;3.03;;;;;;;;;;4260668;33;20068;-69
2023/04/10 16:39:03;;;;;;;3.15;2.83;;;;;;;;;;4258344;33;20058;-68
2023/04/10 16:41:29;;;;;;;3.70;3.05;;;;;;;;;;4255029;33;20128;-70
2023/04/10 16:43:56;;;;;;;6.55;2.95;;;;;;;;;;4256861;33;20050;-68